Time,TemperatureF,DewpointF,PressureIn,WindDirection,WindDirectionDegrees,WindSpeedMPH,WindSpeedGustMPH,Humidity,HourlyPrecipIn,Conditions,Clouds,dailyrainin,SoftwareType,DateUTC
2013-10-13 00:12:00,48.0,41.0,29.98,NNW,338,0.0,4.0,77,0.00,,,0.12,,2013-10-13 05:12:00,
2013-10-13 00:23:00,48.0,41.0,29.98,WSW,238,1.0,9.0,76,0.00,,,0.12,,2013-10-13 05:23:00,
2013-10-13 00:43:00,48.0,41.0,29.98,West,266,0.0,4.0,76,0.00,,,0.12,,2013-10-13 05:43:00,
2013-10-13 00:52:00,47.0,41.0,29.99,WSW,252,0.0,4.0,79,0.00,,,0.12,,2013-10-13 05:52:00,
2013-10-13 01:12:00,45.0,40.0,30.01,NNW,330,0.0,2.0,82,0.00,,,0.12,,2013-10-13 06:12:00,
2013-10-13 01:22:00,44.0,40.0,30.01,WNW,301,0.0,0.0,85,0.00,,,0.12,,2013-10-13 06:22:00,
2013-10-13 01:42:00,43.0,40.0,30.02,WNW,301,0.0,0.0,88,0.00,,,0.12,,2013-10-13 06:42:00,
2013-10-13 01:52:00,44.0,41.0,30.03,NW,311,0.0,1.0,88,0.00,,,0.12,,2013-10-13 06:52:00,
2013-10-13 02:11:00,45.0,41.0,30.03,SW,232,0.0,1.0,86,0.00,,,0.12,,2013-10-13 07:11:00,
2013-10-13 02:22:00,45.0,41.0,30.04,East,86,0.0,1.0,87,0.00,,,0.12,,2013-10-13 07:22:00,
2013-10-13 02:52:00,46.0,42.0,30.05,ESE,113,0.0,1.0,86,0.00,,,0.12,,2013-10-13 07:52:00,
2013-10-13 03:12:00,46.0,42.0,30.06,WSW,250,0.0,1.0,86,0.00,,,0.12,,2013-10-13 08:12:00,
2013-10-13 03:22:00,47.0,43.0,30.06,West,281,0.0,1.0,85,0.00,,,0.12,,2013-10-13 08:22:00,
2013-10-13 03:42:00,47.0,43.0,30.07,West,263,0.0,2.0,85,0.00,,,0.12,,2013-10-13 08:42:00,
2013-10-13 03:52:00,48.0,43.0,30.08,East,90,0.0,2.0,84,0.00,,,0.12,,2013-10-13 08:52:00,
2013-10-13 04:11:00,48.0,43.0,30.08,WSW,252,0.0,2.0,84,0.00,,,0.12,,2013-10-13 09:11:00,
2013-10-13 04:22:00,48.0,43.0,30.09,North,356,0.0,3.0,84,0.00,,,0.12,,2013-10-13 09:22:00,
2013-10-13 04:43:00,48.0,43.0,30.09,West,278,0.0,4.0,83,0.00,,,0.12,,2013-10-13 09:43:00,
2013-10-13 04:53:00,48.0,43.0,30.09,NNW,332,0.0,3.0,83,0.00,,,0.12,,2013-10-13 09:53:00,
2013-10-13 05:13:00,48.0,43.0,30.09,WSW,256,0.0,4.0,84,0.00,,,0.12,,2013-10-13 10:13:00,
2013-10-13 05:23:00,47.0,42.0,30.10,WNW,290,0.0,2.0,84,0.00,,,0.12,,2013-10-13 10:23:00,
2013-10-13 05:43:00,46.0,42.0,30.11,North,7,0.0,1.0,87,0.00,,,0.12,,2013-10-13 10:43:00,
2013-10-13 05:53:00,45.0,42.0,30.11,West,276,0.0,2.0,89,0.00,,,0.12,,2013-10-13 10:53:00,
2013-10-13 06:12:00,46.0,43.0,30.11,NNE,26,0.0,1.0,88,0.00,,,0.12,,2013-10-13 11:12:00,
2013-10-13 06:22:00,46.0,43.0,30.12,NW,316,0.0,3.0,88,0.00,,,0.12,,2013-10-13 11:22:00,
2013-10-13 06:42:00,46.0,43.0,30.13,NW,322,0.0,3.0,89,0.00,,,0.12,,2013-10-13 11:42:00,
2013-10-13 06:52:00,47.0,43.0,30.14,ESE,116,0.0,6.0,87,0.00,,,0.12,,2013-10-13 11:52:00,
2013-10-13 07:12:00,48.0,44.0,30.15,West,270,0.0,4.0,85,0.00,,,0.12,,2013-10-13 12:12:00,
2013-10-13 07:21:00,48.0,43.0,30.16,West,269,0.0,5.0,84,0.00,,,0.12,,2013-10-13 12:21:00,
2013-10-13 07:42:00,47.0,43.0,30.17,West,259,0.0,4.0,85,0.00,,,0.12,,2013-10-13 12:42:00,
2013-10-13 07:52:00,46.0,42.0,30.18,SW,235,0.0,5.0,87,0.00,,,0.12,,2013-10-13 12:52:00,
2013-10-13 08:12:00,47.0,43.0,30.19,West,269,0.0,2.0,85,0.00,,,0.12,,2013-10-13 13:12:00,
2013-10-13 08:22:00,47.0,43.0,30.19,West,269,0.0,2.0,85,0.00,,,0.12,,2013-10-13 13:22:00,
2013-10-13 08:42:00,47.0,43.0,30.21,WNW,290,0.0,2.0,86,0.00,,,0.12,,2013-10-13 13:42:00,
2013-10-13 08:52:00,47.0,43.0,30.22,WNW,298,0.0,2.0,85,0.00,,,0.12,,2013-10-13 13:52:00,
2013-10-13 09:11:00,48.0,43.0,30.23,NNW,342,0.0,1.0,84,0.00,,,0.12,,2013-10-13 14:11:00,
2013-10-13 09:21:00,48.0,43.0,30.24,West,281,0.0,6.0,83,0.00,,,0.12,,2013-10-13 14:21:00,
2013-10-13 09:42:00,48.0,43.0,30.24,WNW,295,0.0,8.0,82,0.00,,,0.12,,2013-10-13 14:42:00,
2013-10-13 09:52:00,48.0,43.0,30.25,North,350,0.0,3.0,82,0.00,,,0.08,,2013-10-13 14:52:00,
2013-10-13 10:12:00,49.0,43.0,30.27,SE,131,1.0,4.0,80,0.00,,,0.08,,2013-10-13 15:12:00,
2013-10-13 10:22:00,49.0,42.0,30.27,North,350,0.0,5.0,78,0.00,,,0.08,,2013-10-13 15:22:00,
2013-10-13 10:43:00,50.0,43.0,30.27,North,356,0.0,3.0,77,0.00,,,0.08,,2013-10-13 15:43:00,
2013-10-13 10:54:00,50.0,42.0,30.28,North,351,1.0,4.0,75,0.00,,,0.01,,2013-10-13 15:54:00,
2013-10-13 11:12:00,51.0,44.0,30.28,West,275,0.0,3.0,76,0.00,,,0.01,,2013-10-13 16:12:00,
2013-10-13 11:24:00,53.0,44.0,30.29,SSW,212,0.0,4.0,71,0.00,,,0.01,,2013-10-13 16:24:00,
2013-10-13 11:43:00,52.0,43.0,30.29,SE,133,0.0,4.0,70,0.00,,,0.01,,2013-10-13 16:43:00,
2013-10-13 11:54:00,52.0,42.0,30.29,WSW,256,1.0,6.0,68,0.00,,,0.00,,2013-10-13 16:54:00,
2013-10-13 12:13:00,52.0,42.0,30.30,WNW,295,0.0,2.0,69,0.00,,,0.00,,2013-10-13 17:13:00,
2013-10-13 12:22:00,51.0,41.0,30.31,NW,324,1.0,9.0,69,0.00,,,0.00,,2013-10-13 17:22:00,
2013-10-13 12:52:00,53.0,42.0,30.30,NW,316,0.0,2.0,65,0.00,,,0.00,,2013-10-13 17:52:00,
2013-10-13 13:12:00,53.0,41.0,30.31,North,8,1.0,6.0,64,0.00,,,0.00,,2013-10-13 18:12:00,
2013-10-13 13:22:00,55.0,43.0,30.30,NNE,23,0.0,4.0,63,0.00,,,0.00,,2013-10-13 18:22:00,
2013-10-13 13:42:00,56.0,41.0,30.30,SW,215,1.0,6.0,58,0.00,,,0.00,,2013-10-13 18:42:00,
2013-10-13 13:52:00,56.0,40.0,30.30,WNW,284,0.0,4.0,55,0.00,,,0.00,,2013-10-13 18:52:00,
2013-10-13 14:11:00,55.0,40.0,30.30,WNW,300,1.0,6.0,56,0.00,,,0.00,,2013-10-13 19:11:00,
2013-10-13 14:22:00,54.0,38.0,30.30,West,267,1.0,3.0,54,0.00,,,0.00,,2013-10-13 19:22:00,
2013-10-13 14:42:00,54.0,39.0,30.30,WNW,302,0.0,6.0,57,0.00,,,0.00,,2013-10-13 19:42:00,
2013-10-13 14:52:00,55.0,38.0,30.30,NW,325,1.0,4.0,53,0.00,,,0.00,,2013-10-13 19:52:00,
2013-10-13 15:02:00,55.0,38.0,30.30,NW,325,1.0,4.0,53,0.00,,,0.00,,2013-10-13 20:02:00,
2013-10-13 15:12:00,55.0,38.0,30.30,NW,325,1.0,4.0,53,0.00,,,0.00,,2013-10-13 20:12:00,
2013-10-13 15:22:00,55.0,38.0,30.30,NNE,15,1.0,5.0,53,0.00,,,0.00,,2013-10-13 20:22:00,
2013-10-13 15:43:00,57.0,40.0,30.30,SW,218,0.0,5.0,53,0.00,,,0.00,,2013-10-13 20:43:00,
2013-10-13 15:52:00,56.0,39.0,30.30,SW,236,0.0,4.0,52,0.00,,,0.00,,2013-10-13 20:52:00,
2013-10-13 16:11:00,54.0,38.0,30.31,NW,316,0.0,2.0,54,0.00,,,0.00,,2013-10-13 21:11:00,
2013-10-13 16:21:00,52.0,38.0,30.30,SSW,211,0.0,2.0,59,0.00,,,0.00,,2013-10-13 21:21:00,
2013-10-13 16:44:00,53.0,39.0,30.30,NW,305,0.0,3.0,58,0.00,,,0.00,,2013-10-13 21:44:00,
2013-10-13 16:55:00,53.0,40.0,30.31,WNW,302,0.0,4.0,61,0.00,,,0.00,,2013-10-13 21:55:00,
2013-10-13 17:13:00,52.0,38.0,30.30,SE,145,0.0,3.0,58,0.00,,,0.00,,2013-10-13 22:13:00,
2013-10-13 17:24:00,51.0,39.0,30.31,NNE,33,0.0,1.0,63,0.00,,,0.00,,2013-10-13 22:24:00,
2013-10-13 17:43:00,49.0,38.0,30.31,SE,134,0.0,1.0,66,0.00,,,0.00,,2013-10-13 22:43:00,
2013-10-13 19:42:00,39.0,37.0,30.34,SW,234,0.0,0.0,91,0.00,,,0.00,,2013-10-14 00:42:00,
2013-10-13 20:21:00,35.0,33.0,30.36,SW,236,0.0,0.0,94,0.00,,,0.00,,2013-10-14 01:21:00,
2013-10-13 20:42:00,34.0,33.0,30.36,SW,235,0.0,0.0,95,0.00,,,0.00,,2013-10-14 01:42:00,
2013-10-13 20:52:00,34.0,33.0,30.37,SW,235,0.0,0.0,95,0.00,,,0.00,,2013-10-14 01:52:00,
2013-10-13 21:11:00,33.0,32.0,30.37,SW,235,0.0,0.0,95,0.00,,,0.00,,2013-10-14 02:11:00,
2013-10-13 21:22:00,32.0,31.0,30.38,SW,235,0.0,0.0,95,0.00,,,0.00,,2013-10-14 02:22:00,
2013-10-13 21:42:00,32.0,31.0,30.38,SW,236,0.0,0.0,96,0.00,,,0.00,,2013-10-14 02:42:00,
2013-10-13 21:52:00,31.0,30.0,30.38,SW,235,0.0,0.0,96,0.00,,,0.00,,2013-10-14 02:52:00,
2013-10-13 22:12:00,31.0,30.0,30.39,SW,235,0.0,0.0,96,0.00,,,0.00,,2013-10-14 03:12:00,
2013-10-13 22:22:00,30.0,29.0,30.39,SW,236,0.0,0.0,96,0.00,,,0.00,,2013-10-14 03:22:00,
2013-10-13 22:44:00,30.0,29.0,30.40,SW,235,0.0,0.0,96,0.00,,,0.00,,2013-10-14 03:44:00,
2013-10-13 22:55:00,30.0,29.0,30.40,SW,235,0.0,0.0,97,0.00,,,0.00,,2013-10-14 03:55:00,
2013-10-13 23:14:00,30.0,29.0,30.40,SW,235,0.0,0.0,97,0.00,,,0.00,,2013-10-14 04:14:00,
2013-10-13 23:24:00,29.0,28.0,30.40,SW,235,0.0,0.0,97,0.00,,,0.00,,2013-10-14 04:24:00,
2013-10-13 23:43:00,29.0,28.0,30.40,SW,235,0.0,0.0,97,0.00,,,0.00,,2013-10-14 04:43:00,
2013-10-13 23:54:00,29.0,28.0,30.40,SW,235,0.0,0.0,97,0.00,,,0.00,,2013-10-14 04:54:00,